TimeEST,TemperatureF,Dew PointF,Humidity,Sea Level PressureIn,VisibilityMPH,Wind Direction,Wind SpeedMPH,Gust SpeedMPH,PrecipitationIn,Events,Conditions,WindDirDegrees,DateUTC
12:53 AM,36.0,34.0,93,30.20,0.2,Calm,Calm,-,N/A,Fog,Fog,0,2012-11-22 05:53:00
1:47 AM,32.0,32.0,100,30.18,0.2,South,3.5,-,N/A,Fog,Fog,170,2012-11-22 06:47:00
1:53 AM,34.0,33.1,96,30.19,0.2,Calm,Calm,-,N/A,Fog,Fog,0,2012-11-22 06:53:00
2:53 AM,34.0,33.1,96,30.19,0.2,Calm,Calm,-,N/A,Fog,Fog,0,2012-11-22 07:53:00
3:48 AM,33.8,33.8,100,30.17,0.2,South,3.5,-,N/A,Fog,Fog,190,2012-11-22 08:48:00
3:53 AM,36.0,34.0,93,30.17,0.2,South,3.5,-,N/A,Fog,Fog,180,2012-11-22 08:53:00
4:00 AM,35.6,35.6,100,30.16,0.2,South,3.5,-,N/A,Fog,Fog,180,2012-11-22 09:00:00
4:09 AM,37.4,35.6,93,30.16,0.2,South,3.5,-,N/A,Fog,Fog,180,2012-11-22 09:09:00
4:53 AM,37.0,36.0,96,30.17,0.2,Calm,Calm,-,N/A,Fog,Fog,0,2012-11-22 09:53:00
5:09 AM,37.4,35.6,93,30.16,0.2,Calm,Calm,-,N/A,Fog,Fog,0,2012-11-22 10:09:00
5:53 AM,37.0,36.0,96,30.17,0.2,South,3.5,-,N/A,Fog,Fog,180,2012-11-22 10:53:00
6:20 AM,37.4,35.6,93,30.16,1.0,South,3.5,-,N/A,,Mist,180,2012-11-22 11:20:00
6:32 AM,37.4,35.6,93,30.16,1.5,South,4.6,-,N/A,,Clear,190,2012-11-22 11:32:00
6:53 AM,37.0,36.0,96,30.17,1.2,South,4.6,-,N/A,,Clear,180,2012-11-22 11:53:00
7:53 AM,37.0,37.0,100,30.17,1.0,South,4.6,-,N/A,,Clear,190,2012-11-22 12:53:00
8:53 AM,43.0,39.9,89,30.17,2.0,South,5.8,-,N/A,,Clear,190,2012-11-22 13:53:00
9:13 AM,44.6,42.8,93,30.15,2.5,South,4.6,-,N/A,,Clear,190,2012-11-22 14:13:00
9:34 AM,46.4,42.8,87,30.15,3.0,South,5.8,-,N/A,,Haze,190,2012-11-22 14:34:00
9:53 AM,48.9,43.0,80,30.16,3.0,South,8.1,-,N/A,,Haze,190,2012-11-22 14:53:00
10:53 AM,55.0,44.1,67,30.14,6.0,SSW,11.5,-,N/A,,Haze,200,2012-11-22 15:53:00
11:53 AM,57.9,44.1,60,30.10,5.0,SSW,20.7,27.6,N/A,,Haze,210,2012-11-22 16:53:00
12:53 PM,61.0,43.0,52,30.08,7.0,SSW,18.4,27.6,N/A,,Clear,210,2012-11-22 17:53:00
1:53 PM,62.1,41.0,46,30.05,10.0,SW,12.7,25.3,N/A,,Clear,220,2012-11-22 18:53:00
2:53 PM,62.1,42.1,48,30.02,10.0,SSW,13.8,20.7,N/A,,Clear,200,2012-11-22 19:53:00
3:53 PM,61.0,41.0,48,30.01,10.0,South,10.4,-,N/A,,Clear,190,2012-11-22 20:53:00
4:53 PM,57.9,41.0,53,30.00,10.0,South,10.4,-,N/A,,Clear,190,2012-11-22 21:53:00
5:53 PM,55.9,39.9,55,29.99,10.0,SSW,10.4,-,N/A,,Clear,200,2012-11-22 22:53:00
6:53 PM,55.9,41.0,57,29.98,10.0,South,13.8,-,N/A,,Mostly Cloudy,190,2012-11-22 23:53:00
7:53 PM,54.0,43.0,66,29.97,8.0,SSW,12.7,-,0.00,Rain,Light Rain,200,2012-11-23 00:53:00
8:53 PM,54.0,43.0,66,29.94,10.0,South,12.7,-,0.01,,Overcast,190,2012-11-23 01:53:00
9:53 PM,54.0,42.1,64,29.92,10.0,SSW,11.5,-,N/A,,Scattered Clouds,210,2012-11-23 02:53:00
10:53 PM,54.0,42.1,64,29.90,10.0,SSW,12.7,-,N/A,,Overcast,210,2012-11-23 03:53:00
11:53 PM,54.0,41.0,62,29.87,10.0,SSW,10.4,-,N/A,,Partly Cloudy,200,2012-11-23 04:53:00